createdAt,value
2023-04-04T00:00:58.807Z,92.90
2023-04-04T00:03:28.532Z,92.60
2023-04-04T00:05:57.541Z,92.50
2023-04-04T00:08:26.642Z,92.20
2023-04-04T00:11:03.162Z,92.00
2023-04-04T00:13:31.949Z,91.80
2023-04-04T00:16:00.811Z,91.50
2023-04-04T00:18:29.600Z,91.40
2023-04-04T00:20:58.482Z,91.10
2023-04-04T00:23:28.139Z,90.70
2023-04-04T00:25:56.935Z,90.60
2023-04-04T00:28:25.912Z,90.30
2023-04-04T00:30:55.842Z,90.20
2023-04-04T00:33:24.667Z,90.00
2023-04-04T00:35:54.053Z,90.10
2023-04-04T00:38:22.781Z,90.10
2023-04-04T00:40:52.680Z,90.20
2023-04-04T00:43:21.529Z,89.90
2023-04-04T00:45:53.146Z,90.10
2023-04-04T00:48:22.675Z,90.10
2023-04-04T00:50:54.588Z,90.10
2023-04-04T00:53:23.389Z,90.10
2023-04-04T00:55:52.905Z,90.00
2023-04-04T00:58:21.611Z,89.40
2023-04-04T01:00:50.392Z,89.40
2023-04-04T01:03:20.477Z,89.70
2023-04-04T01:05:49.396Z,89.60
2023-04-04T01:08:25.884Z,89.10
2023-04-04T01:10:54.618Z,88.80
2023-04-04T01:13:23.702Z,88.70
2023-04-04T01:15:52.819Z,87.20
2023-04-04T01:18:26.930Z,87.60
2023-04-04T01:21:02.776Z,86.50
2023-04-04T01:23:43.566Z,85.50
2023-04-04T01:26:12.326Z,86.90
2023-04-04T01:28:41.983Z,86.60
2023-04-04T01:31:14.242Z,85.50
2023-04-04T01:33:51.245Z,85.30
2023-04-04T01:36:31.653Z,84.40
2023-04-04T01:39:04.096Z,84.40
2023-04-04T01:41:37.894Z,86.50
2023-04-04T01:44:06.885Z,85.70
2023-04-04T01:46:38.067Z,85.60
2023-04-04T01:49:08.309Z,85.20
2023-04-04T01:51:47.461Z,85.60
2023-04-04T01:54:16.261Z,85.50
2023-04-04T01:56:44.987Z,84.30
2023-04-04T01:59:13.833Z,82.90
2023-04-04T02:01:42.717Z,85.00
2023-04-04T02:04:13.558Z,85.10
2023-04-04T02:06:42.505Z,83.20
2023-04-04T02:09:11.328Z,85.40
2023-04-04T02:11:40.079Z,85.00
2023-04-04T02:14:08.882Z,82.80
2023-04-04T02:16:37.680Z,84.20
2023-04-04T02:19:06.446Z,83.10
2023-04-04T02:21:35.165Z,80.20
2023-04-04T02:24:04.438Z,81.10
2023-04-04T02:26:33.154Z,83.50
2023-04-04T02:29:02.031Z,82.40
2023-04-04T02:31:31.094Z,82.90
2023-04-04T02:33:59.910Z,80.50
2023-04-04T02:36:28.815Z,81.30
2023-04-04T02:38:57.786Z,81.40
2023-04-04T02:41:26.646Z,79.30
2023-04-04T02:43:55.488Z,80.80
2023-04-04T02:46:24.227Z,82.20
2023-04-04T02:48:53.170Z,80.80
2023-04-04T02:51:21.910Z,82.10
2023-04-04T02:53:50.714Z,80.90
2023-04-04T02:56:19.452Z,80.00
2023-04-04T02:58:52.968Z,81.60
2023-04-04T03:01:22.077Z,81.90
2023-04-04T03:03:50.939Z,80.70
2023-04-04T03:06:20.154Z,80.50
2023-04-04T03:08:48.909Z,78.90
2023-04-04T03:11:22.251Z,79.80
2023-04-04T03:13:52.705Z,78.40
2023-04-04T03:16:21.530Z,78.00
2023-04-04T03:18:50.646Z,77.70
2023-04-04T03:21:19.730Z,77.80
2023-04-04T03:23:48.500Z,79.70
2023-04-04T03:26:17.419Z,77.60
2023-04-04T03:28:46.225Z,77.00
2023-04-04T03:31:15.022Z,75.70
2023-04-04T03:33:44.003Z,77.20
2023-04-04T03:36:14.344Z,74.40
2023-04-04T03:38:43.339Z,73.10
2023-04-04T03:41:12.375Z,76.00
2023-04-04T03:43:41.369Z,74.40
2023-04-04T03:46:10.282Z,74.80
2023-04-04T03:48:50.543Z,72.80
2023-04-04T03:51:25.794Z,72.60
2023-04-04T03:53:54.722Z,73.70
2023-04-04T03:56:23.598Z,73.60
2023-04-04T03:58:52.643Z,74.10
2023-04-04T04:01:22.100Z,73.70
2023-04-04T04:03:51.037Z,74.80
2023-04-04T04:06:19.862Z,75.50
2023-04-04T04:08:49.246Z,73.70
2023-04-04T04:11:18.040Z,75.00
2023-04-04T04:13:47.026Z,74.90
2023-04-04T04:16:15.870Z,75.10
2023-04-04T04:18:44.837Z,74.90
2023-04-04T04:21:19.552Z,74.20
2023-04-04T04:23:48.340Z,73.30
2023-04-04T04:26:17.183Z,71.90
2023-04-04T04:28:46.958Z,71.90
2023-04-04T04:31:18.674Z,74.30
2023-04-04T04:33:47.470Z,75.30
2023-04-04T04:36:16.739Z,72.30
2023-04-04T04:38:45.459Z,71.00
2023-04-04T04:41:14.365Z,71.10
2023-04-04T04:43:43.256Z,70.60
2023-04-04T04:46:11.989Z,74.50
2023-04-04T04:48:40.761Z,70.70
2023-04-04T04:51:09.782Z,71.50
2023-04-04T04:53:38.579Z,71.50
2023-04-04T04:56:07.920Z,70.90
2023-04-04T04:58:37.089Z,71.60
2023-04-04T05:01:05.834Z,68.90
2023-04-04T05:03:34.605Z,70.20
2023-04-04T05:06:03.850Z,71.90
2023-04-04T05:08:32.598Z,69.50
2023-04-04T05:11:01.834Z,69.40
2023-04-04T05:13:32.092Z,68.90
2023-04-04T05:16:01.080Z,70.90
2023-04-04T05:18:29.854Z,71.60
2023-04-04T05:20:58.908Z,69.80
2023-04-04T05:23:28.249Z,69.00
2023-04-04T05:25:57.587Z,71.30
2023-04-04T05:28:26.887Z,71.20
2023-04-04T05:30:56.596Z,69.20
2023-04-04T05:33:26.211Z,71.50
2023-04-04T05:35:55.417Z,70.90
2023-04-04T05:38:24.205Z,70.00
2023-04-04T05:40:55.567Z,68.50
2023-04-04T05:43:24.634Z,67.90
2023-04-04T05:45:53.361Z,68.20
2023-04-04T05:48:22.173Z,69.30
2023-04-04T05:50:50.928Z,68.50
2023-04-04T05:53:19.849Z,68.70
2023-04-04T05:55:48.769Z,67.30
2023-04-04T05:58:17.532Z,70.10
2023-04-04T06:00:46.282Z,69.90
2023-04-04T06:03:15.159Z,69.40
2023-04-04T06:05:46.534Z,71.40
2023-04-04T06:08:15.290Z,68.30
2023-04-04T06:10:44.095Z,71.40
2023-04-04T06:13:12.928Z,72.30
2023-04-04T06:15:42.021Z,71.80
2023-04-04T06:18:11.050Z,71.00
2023-04-04T06:20:40.035Z,71.30
2023-04-04T06:23:11.000Z,69.10
2023-04-04T06:25:43.013Z,70.80
2023-04-04T06:28:13.029Z,71.20
2023-04-04T06:30:42.027Z,70.70
2023-04-04T06:33:11.016Z,69.60
2023-04-04T06:35:39.857Z,67.00
2023-04-04T06:38:09.640Z,68.70
2023-04-04T06:40:38.914Z,70.20
2023-04-04T06:43:08.230Z,64.90
2023-04-04T06:45:37.204Z,60.40
2023-04-04T06:48:06.406Z,63.30
2023-04-04T06:50:35.255Z,67.10
2023-04-04T06:53:04.506Z,68.10
2023-04-04T06:55:35.128Z,68.80
2023-04-04T06:58:04.025Z,64.80
2023-04-04T07:00:32.864Z,65.80
2023-04-04T07:03:02.343Z,64.00
2023-04-04T07:05:31.322Z,63.20
2023-04-04T07:08:00.204Z,66.40
2023-04-04T07:10:28.983Z,67.50
2023-04-04T07:12:57.785Z,61.30
2023-04-04T07:15:26.619Z,66.50
2023-04-04T07:17:55.905Z,63.00
2023-04-04T07:20:24.899Z,64.70
2023-04-04T07:22:53.687Z,63.30
2023-04-04T07:25:22.382Z,63.30
2023-04-04T07:27:55.115Z,62.00
2023-04-04T07:30:31.139Z,62.50
2023-04-04T07:33:01.129Z,60.90
2023-04-04T07:35:30.343Z,61.50
2023-04-04T07:37:59.124Z,60.20
2023-04-04T07:40:28.222Z,59.90
2023-04-04T07:42:57.184Z,60.40
2023-04-04T07:45:25.956Z,62.60
2023-04-04T07:47:57.744Z,60.10
2023-04-04T07:50:27.242Z,59.50
2023-04-04T07:52:56.945Z,59.00
2023-04-04T07:55:26.329Z,59.30
2023-04-04T07:57:55.695Z,59.20
2023-04-04T08:00:26.915Z,58.30
2023-04-04T08:02:57.305Z,59.90
2023-04-04T08:05:26.836Z,58.20
2023-04-04T08:07:55.809Z,57.90
2023-04-04T08:10:24.593Z,58.00
2023-04-04T08:12:54.222Z,61.50
2023-04-04T08:15:23.089Z,58.50
2023-04-04T08:17:51.853Z,62.10
2023-04-04T08:20:20.759Z,59.30
2023-04-04T08:22:49.825Z,59.00
2023-04-04T08:25:19.821Z,58.60
2023-04-04T08:27:48.622Z,58.40
2023-04-04T08:30:17.487Z,58.80
2023-04-04T08:32:50.146Z,57.70
2023-04-04T08:35:19.156Z,57.90
2023-04-04T08:37:48.369Z,57.60
2023-04-04T08:40:18.029Z,56.80
2023-04-04T08:42:48.166Z,59.90
2023-04-04T08:45:20.543Z,58.30
2023-04-04T08:47:51.609Z,58.60
2023-04-04T08:50:21.495Z,57.50
2023-04-04T08:52:51.080Z,59.90
2023-04-04T08:55:21.196Z,57.30
2023-04-04T08:57:50.367Z,56.80
2023-04-04T09:00:22.390Z,56.40
2023-04-04T09:03:18.204Z,56.90
2023-04-04T09:05:47.264Z,57.90
2023-04-04T09:08:18.006Z,56.10
2023-04-04T09:10:48.264Z,57.40
2023-04-04T09:13:17.593Z,60.00
2023-04-04T09:15:55.850Z,55.90
2023-04-04T09:18:24.982Z,59.40
2023-04-04T09:20:53.948Z,57.10
2023-04-04T09:23:24.561Z,58.60
2023-04-04T09:26:04.015Z,55.00
2023-04-04T09:28:34.790Z,55.20
2023-04-04T09:31:06.660Z,55.40
2023-04-04T09:33:36.372Z,55.30
2023-04-04T09:36:16.567Z,55.50
2023-04-04T09:38:50.676Z,55.70
2023-04-04T09:41:21.884Z,55.80
2023-04-04T09:43:51.261Z,55.30
2023-04-04T09:46:22.205Z,55.30
2023-04-04T09:48:52.535Z,54.70
2023-04-04T09:51:21.282Z,54.60
2023-04-04T09:53:50.784Z,54.60
2023-04-04T09:56:20.435Z,55.60
2023-04-04T09:59:02.405Z,55.00
2023-04-04T10:01:32.490Z,55.20
2023-04-04T10:04:01.542Z,55.60
2023-04-04T10:06:31.735Z,55.10
2023-04-04T10:09:00.558Z,54.90
2023-04-04T10:11:34.404Z,55.10
2023-04-04T10:14:05.159Z,55.00
2023-04-04T10:16:38.292Z,55.30
2023-04-04T10:19:08.911Z,55.40
2023-04-04T10:21:38.152Z,55.60
2023-04-04T10:24:10.829Z,55.40
2023-04-04T10:26:39.916Z,55.60
2023-04-04T10:29:08.777Z,55.60
2023-04-04T10:31:42.790Z,56.00
2023-04-04T10:34:23.000Z,55.80
2023-04-04T10:36:55.420Z,56.00
2023-04-04T10:39:34.842Z,56.20
2023-04-04T10:42:08.296Z,56.40
2023-04-04T10:47:27.053Z,56.60
2023-04-04T10:49:57.274Z,56.60
2023-04-04T10:52:28.826Z,56.80
2023-04-04T10:55:01.391Z,56.80
2023-04-04T10:57:30.759Z,56.90
2023-04-04T11:00:02.714Z,57.30
2023-04-04T11:02:52.388Z,57.10
2023-04-04T11:05:24.455Z,57.40
2023-04-04T11:08:08.229Z,57.30
2023-04-04T11:10:49.194Z,57.50
2023-04-04T11:13:36.352Z,57.60
2023-04-04T11:16:16.250Z,58.00
2023-04-04T11:18:47.090Z,58.00
2023-04-04T11:21:20.810Z,58.10
2023-04-04T11:23:50.676Z,58.40
2023-04-04T11:26:36.140Z,58.40
2023-04-04T11:29:08.836Z,58.70
2023-04-04T11:31:44.349Z,59.00
2023-04-04T11:34:15.473Z,59.00
2023-04-04T11:36:46.113Z,58.90
2023-04-04T11:39:20.408Z,59.10
2023-04-04T11:41:54.909Z,59.50
2023-04-04T11:44:25.715Z,59.40
2023-04-04T11:47:05.309Z,59.80
2023-04-04T11:49:39.432Z,60.20
2023-04-04T11:52:11.064Z,60.60
2023-04-04T11:54:42.037Z,60.70
2023-04-04T11:57:14.132Z,61.10
2023-04-04T11:59:45.701Z,61.50
2023-04-04T12:02:18.143Z,61.70
2023-04-04T12:04:48.493Z,62.00
2023-04-04T12:07:19.434Z,62.20
2023-04-04T12:09:49.171Z,62.40
2023-04-04T12:12:18.308Z,62.60
2023-04-04T12:14:47.323Z,63.10
2023-04-04T12:17:17.916Z,63.40
2023-04-04T12:19:46.862Z,63.50
2023-04-04T12:22:15.721Z,63.60
2023-04-04T12:24:44.508Z,64.00
2023-04-04T12:27:13.766Z,64.00
2023-04-04T12:29:42.753Z,64.40
2023-04-04T12:32:11.810Z,64.90
2023-04-04T12:34:48.825Z,65.00
2023-04-04T12:37:20.636Z,65.00
2023-04-04T12:39:53.225Z,65.60
2023-04-04T12:42:24.018Z,64.60
2023-04-04T12:44:55.042Z,64.60
2023-04-04T12:47:25.758Z,64.80
2023-04-04T12:49:56.062Z,64.20
2023-04-04T12:52:33.273Z,63.40
2023-04-04T12:55:11.607Z,64.30
2023-04-04T12:57:41.692Z,63.60
2023-04-04T13:00:11.008Z,63.50
2023-04-04T13:02:44.020Z,62.40
2023-04-04T13:05:12.841Z,62.60
2023-04-04T13:07:45.284Z,62.20
2023-04-04T13:10:17.812Z,63.10
2023-04-04T13:13:03.524Z,62.60
2023-04-04T13:15:52.610Z,61.40
2023-04-04T13:18:24.492Z,61.20
2023-04-04T13:20:55.298Z,61.20
2023-04-04T13:23:24.609Z,60.80
2023-04-04T13:25:53.496Z,59.90
2023-04-04T13:28:22.511Z,59.80
2023-04-04T13:30:52.056Z,60.30
2023-04-04T13:33:21.243Z,60.40
2023-04-04T13:35:50.936Z,60.40
2023-04-04T13:38:19.760Z,59.90
2023-04-04T13:40:48.575Z,60.10
2023-04-04T13:43:17.432Z,60.30
2023-04-04T13:45:47.582Z,59.90
2023-04-04T13:48:16.527Z,59.80
2023-04-04T13:50:52.112Z,60.60
2023-04-04T13:53:21.008Z,60.90
2023-04-04T13:56:13.208Z,61.10
2023-04-04T13:58:39.174Z,61.70
2023-04-04T14:01:08.219Z,61.90
2023-04-04T14:03:38.140Z,61.60
2023-04-04T14:06:10.679Z,61.70
2023-04-04T14:08:40.640Z,62.10
2023-04-04T14:11:09.526Z,62.60
2023-04-04T14:13:38.483Z,62.90
2023-04-04T14:16:10.398Z,63.00
2023-04-04T14:18:39.232Z,63.20
2023-04-04T14:21:08.321Z,63.60
2023-04-04T14:23:37.221Z,63.60
2023-04-04T14:26:06.190Z,63.50
2023-04-04T14:28:35.100Z,63.50
2023-04-04T14:31:04.007Z,63.70
2023-04-04T14:33:32.932Z,64.00
2023-04-04T14:36:01.812Z,64.20
2023-04-04T14:38:31.714Z,64.20
2023-04-04T14:41:02.994Z,64.40
2023-04-04T14:43:31.921Z,64.40
2023-04-04T14:46:00.656Z,64.40
2023-04-04T14:48:29.462Z,64.80
2023-04-04T14:50:58.445Z,64.90
2023-04-04T14:53:27.696Z,64.90
2023-04-04T14:55:56.542Z,65.20
2023-04-04T14:58:25.468Z,65.10
2023-04-04T15:00:54.552Z,65.10
2023-04-04T15:03:25.048Z,65.20
2023-04-04T15:05:53.947Z,65.30
2023-04-04T15:08:22.711Z,65.70
2023-04-04T15:10:51.459Z,65.60
2023-04-04T15:13:20.258Z,65.80
2023-04-04T15:15:49.036Z,66.30
2023-04-04T15:18:18.345Z,66.20
2023-04-04T15:20:47.264Z,66.40
2023-04-04T15:23:16.308Z,66.50
2023-04-04T15:25:45.049Z,66.60
2023-04-04T15:28:13.833Z,66.90
2023-04-04T15:30:42.781Z,67.00
2023-04-04T15:33:11.908Z,67.00
2023-04-04T15:35:40.978Z,66.90
2023-04-04T15:38:09.753Z,67.20
2023-04-04T15:40:38.697Z,67.20
2023-04-04T15:43:07.852Z,67.20
2023-04-04T15:45:36.793Z,67.70
2023-04-04T15:48:08.590Z,67.80
2023-04-04T15:50:37.395Z,67.50
2023-04-04T15:53:06.253Z,67.30
2023-04-04T15:55:35.150Z,67.40
2023-04-04T15:58:04.028Z,67.60
2023-04-04T16:00:34.654Z,68.00
2023-04-04T16:03:03.666Z,67.90
2023-04-04T16:05:32.709Z,68.00
2023-04-04T16:08:01.722Z,67.90
2023-04-04T16:10:30.518Z,68.00
2023-04-04T16:12:59.365Z,67.90
2023-04-04T16:15:28.114Z,68.30
2023-04-04T16:17:59.783Z,68.20
2023-04-04T16:20:29.711Z,68.30
2023-04-04T16:22:58.669Z,68.40
2023-04-04T16:25:28.005Z,68.70
2023-04-04T16:27:56.968Z,69.20
2023-04-04T16:30:25.914Z,69.20
2023-04-04T16:32:55.003Z,69.20
2023-04-04T16:35:24.014Z,69.00
2023-04-04T16:37:52.759Z,69.10
2023-04-04T16:40:21.995Z,69.00
2023-04-04T16:42:50.796Z,68.70
2023-04-04T16:45:19.642Z,68.90
2023-04-04T16:47:48.496Z,69.10
2023-04-04T16:50:17.895Z,69.10
2023-04-04T16:52:46.711Z,69.30
2023-04-04T16:55:15.882Z,69.40
2023-04-04T16:57:45.520Z,69.50
2023-04-04T17:01:18.694Z,69.40
2023-04-04T17:03:49.071Z,69.50
2023-04-04T17:06:17.827Z,69.40
2023-04-04T17:08:47.621Z,69.40
2023-04-04T17:11:16.619Z,69.40
2023-04-04T17:13:45.378Z,69.50
2023-04-04T17:16:14.147Z,69.50
2023-04-04T17:18:42.955Z,69.60
2023-04-04T17:21:12.000Z,69.60
2023-04-04T17:23:40.957Z,69.60
2023-04-04T17:26:09.826Z,69.70
2023-04-04T17:28:38.735Z,69.80
2023-04-04T17:31:08.705Z,69.70
2023-04-04T17:33:37.697Z,70.00
2023-04-04T17:36:06.834Z,70.40
2023-04-04T17:38:36.063Z,70.20
2023-04-04T17:41:05.247Z,70.50
2023-04-04T17:43:34.124Z,71.40
2023-04-04T17:46:03.825Z,70.90
2023-04-04T17:48:34.632Z,71.60
2023-04-04T17:51:06.180Z,71.10
2023-04-04T17:53:37.043Z,71.60
2023-04-04T17:56:06.022Z,71.80
2023-04-04T17:58:34.804Z,71.70
2023-04-04T18:01:04.726Z,71.10
2023-04-04T18:03:33.877Z,70.60
2023-04-04T18:06:02.807Z,70.40
2023-04-04T18:08:31.762Z,70.20
2023-04-04T18:11:00.638Z,70.30
2023-04-04T18:13:29.500Z,70.30
2023-04-04T18:15:58.379Z,70.60
2023-04-04T18:18:27.315Z,70.40
2023-04-04T18:20:57.400Z,70.00
2023-04-04T18:23:28.313Z,70.40
2023-04-04T18:25:57.599Z,70.90
2023-04-04T18:28:26.613Z,70.70
2023-04-04T18:30:55.908Z,70.10
2023-04-04T18:33:26.054Z,69.70
2023-04-04T18:35:55.906Z,69.70
2023-04-04T18:38:26.068Z,70.00
2023-04-04T18:40:56.734Z,70.00
2023-04-04T18:43:26.672Z,70.10
2023-04-04T18:45:56.114Z,70.30
2023-04-04T18:48:26.100Z,70.30
2023-04-04T18:50:54.944Z,70.50
2023-04-04T18:53:24.126Z,70.70
2023-04-04T18:55:54.319Z,70.90
2023-04-04T18:58:24.287Z,71.00
2023-04-04T19:00:55.204Z,71.00
2023-04-04T19:03:36.812Z,71.00
2023-04-04T19:06:08.658Z,70.90
2023-04-04T19:08:41.566Z,70.90
2023-04-04T19:11:13.337Z,71.00
2023-04-04T19:13:42.436Z,71.10
2023-04-04T19:16:11.321Z,71.60
2023-04-04T19:18:40.173Z,72.10
2023-04-04T19:21:10.168Z,71.90
2023-04-04T19:23:40.224Z,72.10
2023-04-04T19:26:09.190Z,72.20
2023-04-04T19:28:37.880Z,72.20
2023-04-04T19:31:12.077Z,72.50
2023-04-04T19:33:40.869Z,71.90
2023-04-04T19:36:12.668Z,71.80
2023-04-04T19:38:45.352Z,72.00
2023-04-04T19:41:15.414Z,72.00
2023-04-04T19:43:46.563Z,72.10
2023-04-04T19:46:18.495Z,71.70
2023-04-04T19:48:52.118Z,71.70
2023-04-04T19:51:21.775Z,72.40
2023-04-04T19:53:53.059Z,72.80
2023-04-04T19:56:23.771Z,72.60
2023-04-04T19:58:58.919Z,72.70
2023-04-04T20:01:30.138Z,72.40
2023-04-04T20:04:05.610Z,72.70
2023-04-04T20:06:34.435Z,72.70
2023-04-04T20:09:13.756Z,72.70
2023-04-04T20:11:42.544Z,72.80
2023-04-04T20:14:12.228Z,72.60
2023-04-04T20:16:41.103Z,72.60
2023-04-04T20:19:09.974Z,72.70
2023-04-04T20:21:38.885Z,72.50
2023-04-04T20:24:09.530Z,72.70
2023-04-04T20:27:00.489Z,72.60
2023-04-04T20:29:30.873Z,72.90
2023-04-04T20:32:08.633Z,73.10
2023-04-04T20:34:47.312Z,73.20
2023-04-04T20:37:27.253Z,73.30
2023-04-04T20:39:59.803Z,73.10
2023-04-04T20:42:33.200Z,73.40
2023-04-04T20:45:29.565Z,73.80
2023-04-04T20:47:59.288Z,74.10
2023-04-04T20:50:28.961Z,74.50
2023-04-04T20:53:02.214Z,74.40
2023-04-04T20:55:32.648Z,73.60
2023-04-04T20:58:09.989Z,73.40
2023-04-04T21:00:43.468Z,74.00
2023-04-04T21:03:31.900Z,74.60
2023-04-04T21:06:04.612Z,74.40
2023-04-04T21:08:37.005Z,74.50
2023-04-04T21:11:07.753Z,74.40
2023-04-04T21:13:38.476Z,75.10
2023-04-04T21:16:17.740Z,75.10
2023-04-04T21:18:47.319Z,74.50
2023-04-04T21:21:19.821Z,74.70
2023-04-04T21:23:54.332Z,75.40
2023-04-04T21:26:39.488Z,76.20
2023-04-04T21:29:17.659Z,76.00
2023-04-04T21:31:47.841Z,75.40
2023-04-04T21:34:20.710Z,76.20
2023-04-04T21:36:50.376Z,76.60
2023-04-04T21:39:24.768Z,77.10
2023-04-04T21:41:57.604Z,77.30
2023-04-04T21:44:26.771Z,76.30
2023-04-04T21:46:56.592Z,75.30
2023-04-04T21:49:27.182Z,75.30
2023-04-04T21:51:56.069Z,75.20
2023-04-04T21:54:25.064Z,75.20
2023-04-04T21:56:53.869Z,75.50
2023-04-04T21:59:25.904Z,74.80
2023-04-04T22:01:54.763Z,74.30
2023-04-04T22:04:23.725Z,74.00
2023-04-04T22:06:52.658Z,74.00
2023-04-04T22:09:23.536Z,74.10
2023-04-04T22:11:54.861Z,74.50
2023-04-04T22:14:23.762Z,74.70
2023-04-04T22:16:54.023Z,75.00
2023-04-04T22:19:24.461Z,75.00
2023-04-04T22:21:54.968Z,75.10
2023-04-04T22:24:23.934Z,76.00
2023-04-04T22:26:52.802Z,76.90
2023-04-04T22:29:21.894Z,77.40
2023-04-04T22:31:50.779Z,77.50
2023-04-04T22:34:19.651Z,77.00
2023-04-04T22:36:48.593Z,76.60
2023-04-04T22:39:21.497Z,75.90
2023-04-04T22:41:50.343Z,75.70
2023-04-04T22:44:19.190Z,75.70
2023-04-04T22:46:48.042Z,75.80
2023-04-04T22:49:17.253Z,75.70
2023-04-04T22:51:46.364Z,75.70
2023-04-04T22:54:17.236Z,76.60
2023-04-04T22:56:47.003Z,77.30
2023-04-04T22:59:15.900Z,77.20
2023-04-04T23:01:44.905Z,76.20
2023-04-04T23:04:15.556Z,76.20
2023-04-04T23:06:45.930Z,77.20
2023-04-04T23:09:14.896Z,77.70
2023-04-04T23:11:43.747Z,77.30
2023-04-04T23:14:15.771Z,77.40
2023-04-04T23:16:44.726Z,77.50
2023-04-04T23:19:14.003Z,77.80
2023-04-04T23:21:42.973Z,77.90
2023-04-04T23:24:12.064Z,78.30
2023-04-04T23:26:40.912Z,79.40
2023-04-04T23:29:10.828Z,79.70
2023-04-04T23:31:39.664Z,79.30
2023-04-04T23:34:08.500Z,79.80
2023-04-04T23:36:37.392Z,78.30
2023-04-04T23:39:06.411Z,77.60
2023-04-04T23:41:35.272Z,77.80
2023-04-04T23:44:04.184Z,77.70
2023-04-04T23:46:35.130Z,77.60
2023-04-04T23:49:04.075Z,77.40
2023-04-04T23:51:39.165Z,77.10
2023-04-04T23:54:09.290Z,77.60
2023-04-04T23:56:38.552Z,78.00
2023-04-04T23:59:08.232Z,77.70
